sensor_id;sensor_type;location;lat;lon;timestamp;P1;durP1;ratioP1;P2;durP2;ratioP2
18046;SDS011;9148;51.454;13.862;2022-10-16T00:00:43;1.95;;;1.40;;
18046;SDS011;9148;51.454;13.862;2022-10-16T00:03:09;1.25;;;0.85;;
18046;SDS011;9148;51.454;13.862;2022-10-16T00:05:40;1.48;;;1.38;;
18046;SDS011;9148;51.454;13.862;2022-10-16T00:08:08;1.52;;;1.35;;
18046;SDS011;9148;51.454;13.862;2022-10-16T00:10:36;1.10;;;0.98;;
18046;SDS011;9148;51.454;13.862;2022-10-16T00:13:02;2.10;;;1.10;;
18046;SDS011;9148;51.454;13.862;2022-10-16T00:15:29;1.27;;;1.08;;
18046;SDS011;9148;51.454;13.862;2022-10-16T00:17:57;2.15;;;1.50;;
18046;SDS011;9148;51.454;13.862;2022-10-16T00:20:23;1.55;;;1.45;;
18046;SDS011;9148;51.454;13.862;2022-10-16T00:22:48;1.55;;;1.45;;
18046;SDS011;9148;51.454;13.862;2022-10-16T00:25:14;1.30;;;1.20;;
18046;SDS011;9148;51.454;13.862;2022-10-16T00:27:40;1.67;;;1.40;;
18046;SDS011;9148;51.454;13.862;2022-10-16T00:30:06;2.33;;;0.93;;
18046;SDS011;9148;51.454;13.862;2022-10-16T00:32:33;2.30;;;1.40;;
18046;SDS011;9148;51.454;13.862;2022-10-16T00:34:59;1.20;;;1.08;;
18046;SDS011;9148;51.454;13.862;2022-10-16T00:37:24;1.10;;;1.00;;
18046;SDS011;9148;51.454;13.862;2022-10-16T00:39:50;1.30;;;0.95;;
18046;SDS011;9148;51.454;13.862;2022-10-16T00:42:16;1.13;;;1.08;;
18046;SDS011;9148;51.454;13.862;2022-10-16T00:47:25;3.53;;;1.17;;
18046;SDS011;9148;51.454;13.862;2022-10-16T00:50:00;1.38;;;0.75;;
18046;SDS011;9148;51.454;13.862;2022-10-16T00:52:47;0.93;;;0.82;;
18046;SDS011;9148;51.454;13.862;2022-10-16T00:55:15;2.40;;;1.33;;
18046;SDS011;9148;51.454;13.862;2022-10-16T00:57:41;1.65;;;1.25;;
18046;SDS011;9148;51.454;13.862;2022-10-16T01:00:12;2.03;;;0.88;;
18046;SDS011;9148;51.454;13.862;2022-10-16T01:02:42;1.00;;;0.88;;
18046;SDS011;9148;51.454;13.862;2022-10-16T01:05:07;3.70;;;1.70;;
18046;SDS011;9148;51.454;13.862;2022-10-16T01:10:30;2.00;;;1.42;;
18046;SDS011;9148;51.454;13.862;2022-10-16T01:31:44;2.28;;;1.42;;
18046;SDS011;9148;51.454;13.862;2022-10-16T01:34:22;2.17;;;1.92;;
18046;SDS011;9148;51.454;13.862;2022-10-16T01:37:14;1.63;;;1.52;;
18046;SDS011;9148;51.454;13.862;2022-10-16T01:39:48;3.35;;;1.67;;
18046;SDS011;9148;51.454;13.862;2022-10-16T01:42:20;1.88;;;1.30;;
18046;SDS011;9148;51.454;13.862;2022-10-16T01:44:49;2.33;;;1.42;;
18046;SDS011;9148;51.454;13.862;2022-10-16T01:47:18;1.17;;;1.08;;
18046;SDS011;9148;51.454;13.862;2022-10-16T01:49:47;1.45;;;1.33;;
18046;SDS011;9148;51.454;13.862;2022-10-16T01:52:18;2.67;;;1.55;;
18046;SDS011;9148;51.454;13.862;2022-10-16T01:54:49;1.80;;;1.45;;
18046;SDS011;9148;51.454;13.862;2022-10-16T01:57:19;1.83;;;1.58;;
18046;SDS011;9148;51.454;13.862;2022-10-16T01:59:49;2.85;;;1.63;;
18046;SDS011;9148;51.454;13.862;2022-10-16T02:02:21;3.15;;;1.70;;
18046;SDS011;9148;51.454;13.862;2022-10-16T02:04:53;3.08;;;2.13;;
18046;SDS011;9148;51.454;13.862;2022-10-16T02:07:24;1.50;;;1.40;;
18046;SDS011;9148;51.454;13.862;2022-10-16T02:09:50;2.58;;;1.83;;
18046;SDS011;9148;51.454;13.862;2022-10-16T02:12:19;3.55;;;1.27;;
18046;SDS011;9148;51.454;13.862;2022-10-16T02:14:52;2.42;;;1.60;;
18046;SDS011;9148;51.454;13.862;2022-10-16T02:17:18;1.67;;;1.55;;
18046;SDS011;9148;51.454;13.862;2022-10-16T02:19:44;0.80;;;0.80;;
18046;SDS011;9148;51.454;13.862;2022-10-16T02:22:15;2.30;;;1.50;;
18046;SDS011;9148;51.454;13.862;2022-10-16T02:24:56;1.30;;;1.20;;
18046;SDS011;9148;51.454;13.862;2022-10-16T02:27:57;1.42;;;1.33;;
18046;SDS011;9148;51.454;13.862;2022-10-16T02:30:34;1.75;;;1.15;;
18046;SDS011;9148;51.454;13.862;2022-10-16T02:33:23;1.08;;;0.82;;
18046;SDS011;9148;51.454;13.862;2022-10-16T02:35:51;2.25;;;1.50;;
18046;SDS011;9148;51.454;13.862;2022-10-16T02:38:18;2.28;;;1.40;;
18046;SDS011;9148;51.454;13.862;2022-10-16T02:40:46;1.95;;;1.50;;
18046;SDS011;9148;51.454;13.862;2022-10-16T02:43:12;1.80;;;1.55;;
18046;SDS011;9148;51.454;13.862;2022-10-16T02:45:38;1.77;;;1.67;;
18046;SDS011;9148;51.454;13.862;2022-10-16T02:48:04;1.55;;;1.45;;
18046;SDS011;9148;51.454;13.862;2022-10-16T02:50:30;2.25;;;1.48;;
18046;SDS011;9148;51.454;13.862;2022-10-16T02:52:56;1.23;;;1.10;;
18046;SDS011;9148;51.454;13.862;2022-10-16T02:55:22;1.65;;;1.40;;
18046;SDS011;9148;51.454;13.862;2022-10-16T02:57:47;1.77;;;1.40;;
18046;SDS011;9148;51.454;13.862;2022-10-16T03:00:14;1.73;;;1.10;;
18046;SDS011;9148;51.454;13.862;2022-10-16T03:02:41;1.52;;;0.82;;
18046;SDS011;9148;51.454;13.862;2022-10-16T03:05:08;2.38;;;1.13;;
18046;SDS011;9148;51.454;13.862;2022-10-16T03:07:34;1.77;;;1.00;;
18046;SDS011;9148;51.454;13.862;2022-10-16T03:10:00;2.00;;;1.33;;
18046;SDS011;9148;51.454;13.862;2022-10-16T03:12:26;1.35;;;0.93;;
18046;SDS011;9148;51.454;13.862;2022-10-16T03:14:53;2.05;;;1.30;;
18046;SDS011;9148;51.454;13.862;2022-10-16T03:17:20;1.05;;;0.95;;
18046;SDS011;9148;51.454;13.862;2022-10-16T03:19:45;1.38;;;1.27;;
18046;SDS011;9148;51.454;13.862;2022-10-16T03:22:11;2.85;;;1.00;;
18046;SDS011;9148;51.454;13.862;2022-10-16T03:24:37;1.63;;;1.35;;
18046;SDS011;9148;51.454;13.862;2022-10-16T03:27:03;1.45;;;1.35;;
18046;SDS011;9148;51.454;13.862;2022-10-16T03:29:28;1.33;;;1.23;;
18046;SDS011;9148;51.454;13.862;2022-10-16T03:31:54;1.83;;;1.38;;
18046;SDS011;9148;51.454;13.862;2022-10-16T03:34:21;2.30;;;1.20;;
18046;SDS011;9148;51.454;13.862;2022-10-16T03:36:47;2.30;;;1.58;;
18046;SDS011;9148;51.454;13.862;2022-10-16T03:39:12;1.27;;;1.00;;
18046;SDS011;9148;51.454;13.862;2022-10-16T03:41:38;1.35;;;1.10;;
18046;SDS011;9148;51.454;13.862;2022-10-16T03:44:04;2.08;;;1.20;;
18046;SDS011;9148;51.454;13.862;2022-10-16T03:46:30;1.30;;;1.10;;
18046;SDS011;9148;51.454;13.862;2022-10-16T03:48:55;0.47;;;0.47;;
18046;SDS011;9148;51.454;13.862;2022-10-16T03:51:21;2.00;;;1.27;;
18046;SDS011;9148;51.454;13.862;2022-10-16T03:53:47;1.60;;;1.02;;
18046;SDS011;9148;51.454;13.862;2022-10-16T03:56:12;1.38;;;0.88;;
18046;SDS011;9148;51.454;13.862;2022-10-16T03:58:38;1.55;;;1.10;;
18046;SDS011;9148;51.454;13.862;2022-10-16T04:01:04;1.75;;;1.00;;
18046;SDS011;9148;51.454;13.862;2022-10-16T04:03:30;2.85;;;1.95;;
18046;SDS011;9148;51.454;13.862;2022-10-16T04:05:55;1.60;;;1.30;;
18046;SDS011;9148;51.454;13.862;2022-10-16T04:08:21;0.75;;;0.75;;
18046;SDS011;9148;51.454;13.862;2022-10-16T04:10:47;2.58;;;0.90;;
18046;SDS011;9148;51.454;13.862;2022-10-16T04:13:13;0.77;;;0.77;;
18046;SDS011;9148;51.454;13.862;2022-10-16T04:15:38;1.40;;;0.95;;
18046;SDS011;9148;51.454;13.862;2022-10-16T04:18:04;1.10;;;1.00;;
18046;SDS011;9148;51.454;13.862;2022-10-16T04:20:30;3.15;;;1.67;;
18046;SDS011;9148;51.454;13.862;2022-10-16T04:22:57;1.80;;;1.45;;
18046;SDS011;9148;51.454;13.862;2022-10-16T04:25:22;1.05;;;1.05;;
18046;SDS011;9148;51.454;13.862;2022-10-16T04:27:48;1.70;;;1.35;;
18046;SDS011;9148;51.454;13.862;2022-10-16T04:30:14;1.30;;;1.20;;
18046;SDS011;9148;51.454;13.862;2022-10-16T04:32:41;5.70;;;1.50;;
18046;SDS011;9148;51.454;13.862;2022-10-16T04:35:06;1.27;;;1.17;;
18046;SDS011;9148;51.454;13.862;2022-10-16T04:37:33;2.25;;;2.05;;
18046;SDS011;9148;51.454;13.862;2022-10-16T04:39:58;2.03;;;1.80;;
18046;SDS011;9148;51.454;13.862;2022-10-16T04:42:24;3.03;;;1.47;;
18046;SDS011;9148;51.454;13.862;2022-10-16T04:44:50;2.92;;;1.67;;
18046;SDS011;9148;51.454;13.862;2022-10-16T04:47:15;2.00;;;1.90;;
18046;SDS011;9148;51.454;13.862;2022-10-16T04:49:41;1.53;;;1.30;;
18046;SDS011;9148;51.454;13.862;2022-10-16T04:52:07;2.23;;;1.50;;
18046;SDS011;9148;51.454;13.862;2022-10-16T04:54:34;6.95;;;1.63;;
18046;SDS011;9148;51.454;13.862;2022-10-16T04:57:00;3.40;;;2.50;;
18046;SDS011;9148;51.454;13.862;2022-10-16T04:59:25;2.23;;;2.03;;
18046;SDS011;9148;51.454;13.862;2022-10-16T05:01:51;1.90;;;1.50;;
18046;SDS011;9148;51.454;13.862;2022-10-16T05:04:17;2.33;;;1.60;;
18046;SDS011;9148;51.454;13.862;2022-10-16T05:06:42;3.33;;;2.03;;
18046;SDS011;9148;51.454;13.862;2022-10-16T05:09:08;2.63;;;1.37;;
18046;SDS011;9148;51.454;13.862;2022-10-16T05:11:35;3.83;;;1.87;;
18046;SDS011;9148;51.454;13.862;2022-10-16T05:14:00;1.23;;;1.10;;
18046;SDS011;9148;51.454;13.862;2022-10-16T05:16:27;2.57;;;2.13;;
18046;SDS011;9148;51.454;13.862;2022-10-16T05:18:52;2.80;;;1.83;;
18046;SDS011;9148;51.454;13.862;2022-10-16T05:21:19;2.97;;;1.63;;
18046;SDS011;9148;51.454;13.862;2022-10-16T05:23:45;2.80;;;2.20;;
18046;SDS011;9148;51.454;13.862;2022-10-16T05:26:10;1.87;;;1.60;;
18046;SDS011;9148;51.454;13.862;2022-10-16T05:28:36;2.50;;;1.83;;
18046;SDS011;9148;51.454;13.862;2022-10-16T05:31:05;2.17;;;1.83;;
18046;SDS011;9148;51.454;13.862;2022-10-16T05:33:32;2.17;;;1.73;;
18046;SDS011;9148;51.454;13.862;2022-10-16T05:36:05;3.37;;;2.03;;
18046;SDS011;9148;51.454;13.862;2022-10-16T05:38:33;3.10;;;2.00;;
18046;SDS011;9148;51.454;13.862;2022-10-16T05:41:00;3.63;;;2.27;;
18046;SDS011;9148;51.454;13.862;2022-10-16T05:43:27;3.77;;;1.63;;
18046;SDS011;9148;51.454;13.862;2022-10-16T05:46:02;1.63;;;1.37;;
18046;SDS011;9148;51.454;13.862;2022-10-16T05:48:29;1.33;;;1.23;;
18046;SDS011;9148;51.454;13.862;2022-10-16T05:50:56;2.83;;;1.63;;
18046;SDS011;9148;51.454;13.862;2022-10-16T05:53:23;2.13;;;1.92;;
18046;SDS011;9148;51.454;13.862;2022-10-16T05:55:57;8.80;;;1.97;;
18046;SDS011;9148;51.454;13.862;2022-10-16T05:58:23;6.30;;;2.03;;
18046;SDS011;9148;51.454;13.862;2022-10-16T06:00:53;2.70;;;1.83;;
18046;SDS011;9148;51.454;13.862;2022-10-16T06:03:27;3.33;;;1.67;;
18046;SDS011;9148;51.454;13.862;2022-10-16T06:05:53;2.63;;;1.57;;
18046;SDS011;9148;51.454;13.862;2022-10-16T06:08:19;3.07;;;1.50;;
18046;SDS011;9148;51.454;13.862;2022-10-16T06:10:46;7.63;;;1.80;;
18046;SDS011;9148;51.454;13.862;2022-10-16T06:13:12;1.43;;;1.20;;
18046;SDS011;9148;51.454;13.862;2022-10-16T06:15:39;1.57;;;1.40;;
18046;SDS011;9148;51.454;13.862;2022-10-16T06:18:07;3.73;;;2.00;;
18046;SDS011;9148;51.454;13.862;2022-10-16T06:20:33;3.00;;;1.63;;
18046;SDS011;9148;51.454;13.862;2022-10-16T06:23:00;2.13;;;1.63;;
18046;SDS011;9148;51.454;13.862;2022-10-16T06:25:25;2.07;;;1.93;;
18046;SDS011;9148;51.454;13.862;2022-10-16T06:27:51;4.10;;;2.43;;
18046;SDS011;9148;51.454;13.862;2022-10-16T06:30:17;2.87;;;2.10;;
18046;SDS011;9148;51.454;13.862;2022-10-16T06:32:42;1.83;;;1.63;;
18046;SDS011;9148;51.454;13.862;2022-10-16T06:35:08;2.55;;;2.17;;
18046;SDS011;9148;51.454;13.862;2022-10-16T06:37:34;2.63;;;2.42;;
18046;SDS011;9148;51.454;13.862;2022-10-16T06:39:59;2.80;;;2.17;;
18046;SDS011;9148;51.454;13.862;2022-10-16T06:42:25;2.60;;;1.88;;
18046;SDS011;9148;51.454;13.862;2022-10-16T06:44:51;2.13;;;1.67;;
18046;SDS011;9148;51.454;13.862;2022-10-16T06:47:16;1.50;;;1.30;;
18046;SDS011;9148;51.454;13.862;2022-10-16T06:49:42;1.65;;;1.52;;
18046;SDS011;9148;51.454;13.862;2022-10-16T06:52:08;2.45;;;1.85;;
18046;SDS011;9148;51.454;13.862;2022-10-16T06:54:34;1.83;;;1.48;;
18046;SDS011;9148;51.454;13.862;2022-10-16T06:56:59;1.65;;;1.42;;
18046;SDS011;9148;51.454;13.862;2022-10-16T06:59:26;1.75;;;1.65;;
18046;SDS011;9148;51.454;13.862;2022-10-16T07:01:52;1.85;;;1.67;;
18046;SDS011;9148;51.454;13.862;2022-10-16T07:04:18;1.80;;;1.70;;
18046;SDS011;9148;51.454;13.862;2022-10-16T07:06:43;2.17;;;1.63;;
18046;SDS011;9148;51.454;13.862;2022-10-16T07:09:09;2.28;;;1.35;;
18046;SDS011;9148;51.454;13.862;2022-10-16T07:11:36;1.63;;;1.38;;
18046;SDS011;9148;51.454;13.862;2022-10-16T07:14:04;1.20;;;1.10;;
18046;SDS011;9148;51.454;13.862;2022-10-16T07:16:30;2.08;;;1.20;;
18046;SDS011;9148;51.454;13.862;2022-10-16T07:18:58;1.30;;;1.10;;
18046;SDS011;9148;51.454;13.862;2022-10-16T07:21:27;1.42;;;1.33;;
18046;SDS011;9148;51.454;13.862;2022-10-16T07:23:59;1.80;;;1.30;;
18046;SDS011;9148;51.454;13.862;2022-10-16T07:26:26;2.30;;;1.35;;
18046;SDS011;9148;51.454;13.862;2022-10-16T07:28:55;2.83;;;1.30;;
18046;SDS011;9148;51.454;13.862;2022-10-16T07:31:22;2.80;;;1.63;;
18046;SDS011;9148;51.454;13.862;2022-10-16T07:33:48;2.08;;;1.10;;
18046;SDS011;9148;51.454;13.862;2022-10-16T07:36:15;1.65;;;1.20;;
18046;SDS011;9148;51.454;13.862;2022-10-16T07:38:43;1.42;;;1.33;;
18046;SDS011;9148;51.454;13.862;2022-10-16T07:41:10;1.38;;;1.02;;
18046;SDS011;9148;51.454;13.862;2022-10-16T07:43:48;2.42;;;1.52;;
18046;SDS011;9148;51.454;13.862;2022-10-16T07:46:16;1.52;;;1.10;;
18046;SDS011;9148;51.454;13.862;2022-10-16T07:48:43;1.20;;;1.10;;
18046;SDS011;9148;51.454;13.862;2022-10-16T07:51:12;1.00;;;0.82;;
18046;SDS011;9148;51.454;13.862;2022-10-16T07:53:42;2.05;;;1.17;;
18046;SDS011;9148;51.454;13.862;2022-10-16T07:56:08;1.10;;;1.05;;
18046;SDS011;9148;51.454;13.862;2022-10-16T07:58:34;1.42;;;1.10;;
18046;SDS011;9148;51.454;13.862;2022-10-16T08:01:06;0.80;;;0.77;;
18046;SDS011;9148;51.454;13.862;2022-10-16T08:03:37;1.52;;;1.13;;
18046;SDS011;9148;51.454;13.862;2022-10-16T08:06:06;0.52;;;0.50;;
18046;SDS011;9148;51.454;13.862;2022-10-16T08:08:32;1.10;;;0.85;;
18046;SDS011;9148;51.454;13.862;2022-10-16T08:10:58;1.25;;;1.05;;
18046;SDS011;9148;51.454;13.862;2022-10-16T08:13:24;0.95;;;0.95;;
18046;SDS011;9148;51.454;13.862;2022-10-16T08:15:51;1.13;;;0.93;;
18046;SDS011;9148;51.454;13.862;2022-10-16T08:18:18;1.05;;;0.57;;
18046;SDS011;9148;51.454;13.862;2022-10-16T08:20:44;1.30;;;0.50;;
18046;SDS011;9148;51.454;13.862;2022-10-16T08:23:11;0.40;;;0.40;;
18046;SDS011;9148;51.454;13.862;2022-10-16T08:25:38;0.63;;;0.55;;
18046;SDS011;9148;51.454;13.862;2022-10-16T08:28:05;1.70;;;0.50;;
18046;SDS011;9148;51.454;13.862;2022-10-16T08:30:33;0.90;;;0.57;;
18046;SDS011;9148;51.454;13.862;2022-10-16T08:32:59;1.20;;;0.60;;
18046;SDS011;9148;51.454;13.862;2022-10-16T08:35:25;0.28;;;0.28;;
18046;SDS011;9148;51.454;13.862;2022-10-16T08:37:51;0.40;;;0.38;;
18046;SDS011;9148;51.454;13.862;2022-10-16T08:40:20;0.50;;;0.50;;
18046;SDS011;9148;51.454;13.862;2022-10-16T08:48:53;0.90;;;0.30;;
18046;SDS011;9148;51.454;13.862;2022-10-16T08:51:26;0.35;;;0.35;;
18046;SDS011;9148;51.454;13.862;2022-10-16T08:53:59;0.25;;;0.20;;
18046;SDS011;9148;51.454;13.862;2022-10-16T08:56:28;0.20;;;0.20;;
18046;SDS011;9148;51.454;13.862;2022-10-16T08:58:54;2.05;;;0.30;;
18046;SDS011;9148;51.454;13.862;2022-10-16T09:01:23;0.43;;;0.17;;
18046;SDS011;9148;51.454;13.862;2022-10-16T09:04:07;0.50;;;0.30;;
18046;SDS011;9148;51.454;13.862;2022-10-16T09:07:12;0.50;;;0.30;;
18046;SDS011;9148;51.454;13.862;2022-10-16T09:15:55;0.43;;;0.20;;
18046;SDS011;9148;51.454;13.862;2022-10-16T09:21:31;0.15;;;0.15;;
18046;SDS011;9148;51.454;13.862;2022-10-16T09:24:10;1.45;;;0.35;;
18046;SDS011;9148;51.454;13.862;2022-10-16T09:26:39;0.10;;;0.10;;
18046;SDS011;9148;51.454;13.862;2022-10-16T09:29:05;0.25;;;0.13;;
18046;SDS011;9148;51.454;13.862;2022-10-16T09:31:31;0.10;;;0.10;;
18046;SDS011;9148;51.454;13.862;2022-10-16T09:33:58;0.68;;;0.30;;
18046;SDS011;9148;51.454;13.862;2022-10-16T09:36:39;0.52;;;0.40;;
18046;SDS011;9148;51.454;13.862;2022-10-16T09:39:09;0.10;;;0.10;;
18046;SDS011;9148;51.454;13.862;2022-10-16T09:41:41;0.20;;;0.20;;
18046;SDS011;9148;51.454;13.862;2022-10-16T09:47:11;3.17;;;0.47;;
18046;SDS011;9148;51.454;13.862;2022-10-16T09:49:50;0.50;;;0.17;;
18046;SDS011;9148;51.454;13.862;2022-10-16T09:52:23;0.45;;;0.25;;
18046;SDS011;9148;51.454;13.862;2022-10-16T09:54:52;0.40;;;0.40;;
18046;SDS011;9148;51.454;13.862;2022-10-16T09:57:22;0.52;;;0.38;;
18046;SDS011;9148;51.454;13.862;2022-10-16T09:59:53;0.20;;;0.20;;
18046;SDS011;9148;51.454;13.862;2022-10-16T10:02:39;1.30;;;0.63;;
18046;SDS011;9148;51.454;13.862;2022-10-16T10:05:05;0.15;;;0.15;;
18046;SDS011;9148;51.454;13.862;2022-10-16T10:07:43;1.30;;;0.38;;
18046;SDS011;9148;51.454;13.862;2022-10-16T10:10:21;0.20;;;0.20;;
18046;SDS011;9148;51.454;13.862;2022-10-16T10:12:52;0.82;;;0.35;;
18046;SDS011;9148;51.454;13.862;2022-10-16T10:15:18;1.55;;;0.20;;
18046;SDS011;9148;51.454;13.862;2022-10-16T10:17:50;0.75;;;0.28;;
18046;SDS011;9148;51.454;13.862;2022-10-16T10:20:25;0.00;;;0.00;;
18046;SDS011;9148;51.454;13.862;2022-10-16T10:23:20;1.02;;;0.70;;
18046;SDS011;9148;51.454;13.862;2022-10-16T10:31:26;0.10;;;0.10;;
18046;SDS011;9148;51.454;13.862;2022-10-16T10:40:27;0.22;;;0.22;;
18046;SDS011;9148;51.454;13.862;2022-10-16T10:43:32;0.20;;;0.20;;
18046;SDS011;9148;51.454;13.862;2022-10-16T10:46:16;0.90;;;0.22;;
18046;SDS011;9148;51.454;13.862;2022-10-16T10:49:09;0.22;;;0.22;;
18046;SDS011;9148;51.454;13.862;2022-10-16T10:52:02;0.20;;;0.20;;
18046;SDS011;9148;51.454;13.862;2022-10-16T11:06:48;2.83;;;0.35;;
18046;SDS011;9148;51.454;13.862;2022-10-16T11:09:28;0.65;;;0.22;;
18046;SDS011;9148;51.454;13.862;2022-10-16T11:12:19;0.22;;;0.20;;
18046;SDS011;9148;51.454;13.862;2022-10-16T11:14:58;2.33;;;0.30;;
18046;SDS011;9148;51.454;13.862;2022-10-16T11:17:47;0.15;;;0.15;;
18046;SDS011;9148;51.454;13.862;2022-10-16T11:22:54;0.32;;;0.32;;
18046;SDS011;9148;51.454;13.862;2022-10-16T11:30:33;0.43;;;0.30;;
18046;SDS011;9148;51.454;13.862;2022-10-16T11:33:17;0.10;;;0.10;;
18046;SDS011;9148;51.454;13.862;2022-10-16T11:36:41;0.20;;;0.20;;
18046;SDS011;9148;51.454;13.862;2022-10-16T11:39:26;0.20;;;0.10;;
18046;SDS011;9148;51.454;13.862;2022-10-16T11:45:03;0.17;;;0.17;;
18046;SDS011;9148;51.454;13.862;2022-10-16T11:47:51;0.35;;;0.20;;
18046;SDS011;9148;51.454;13.862;2022-10-16T11:53:03;0.00;;;0.00;;
18046;SDS011;9148;51.454;13.862;2022-10-16T11:56:16;0.32;;;0.32;;
18046;SDS011;9148;51.454;13.862;2022-10-16T11:58:49;0.57;;;0.30;;
18046;SDS011;9148;51.454;13.862;2022-10-16T12:01:28;0.32;;;0.32;;
18046;SDS011;9148;51.454;13.862;2022-10-16T12:04:23;0.30;;;0.30;;
18046;SDS011;9148;51.454;13.862;2022-10-16T12:07:02;0.20;;;0.20;;
18046;SDS011;9148;51.454;13.862;2022-10-16T12:09:36;0.30;;;0.30;;
18046;SDS011;9148;51.454;13.862;2022-10-16T12:12:04;0.20;;;0.20;;
18046;SDS011;9148;51.454;13.862;2022-10-16T12:14:59;0.77;;;0.30;;
18046;SDS011;9148;51.454;13.862;2022-10-16T12:17:52;0.85;;;0.50;;
18046;SDS011;9148;51.454;13.862;2022-10-16T12:20:21;0.47;;;0.47;;
18046;SDS011;9148;51.454;13.862;2022-10-16T12:23:16;0.32;;;0.32;;
18046;SDS011;9148;51.454;13.862;2022-10-16T12:25:53;0.47;;;0.22;;
18046;SDS011;9148;51.454;13.862;2022-10-16T12:28:21;0.52;;;0.20;;
18046;SDS011;9148;51.454;13.862;2022-10-16T12:30:59;0.10;;;0.10;;
18046;SDS011;9148;51.454;13.862;2022-10-16T12:36:02;0.22;;;0.22;;
18046;SDS011;9148;51.454;13.862;2022-10-16T12:38:49;0.13;;;0.10;;
18046;SDS011;9148;51.454;13.862;2022-10-16T12:43:57;1.67;;;0.50;;
18046;SDS011;9148;51.454;13.862;2022-10-16T12:51:53;0.20;;;0.20;;
18046;SDS011;9148;51.454;13.862;2022-10-16T12:54:25;0.63;;;0.28;;
18046;SDS011;9148;51.454;13.862;2022-10-16T13:00:12;0.80;;;0.50;;
18046;SDS011;9148;51.454;13.862;2022-10-16T13:08:55;0.30;;;0.30;;
18046;SDS011;9148;51.454;13.862;2022-10-16T13:11:49;2.08;;;0.57;;
18046;SDS011;9148;51.454;13.862;2022-10-16T13:26:00;0.47;;;0.47;;
18046;SDS011;9148;51.454;13.862;2022-10-16T13:28:58;0.65;;;0.57;;
18046;SDS011;9148;51.454;13.862;2022-10-16T13:31:26;0.70;;;0.40;;
18046;SDS011;9148;51.454;13.862;2022-10-16T13:33:54;0.90;;;0.45;;
18046;SDS011;9148;51.454;13.862;2022-10-16T13:36:33;0.28;;;0.28;;
18046;SDS011;9148;51.454;13.862;2022-10-16T13:39:13;0.63;;;0.43;;
18046;SDS011;9148;51.454;13.862;2022-10-16T13:42:03;1.50;;;1.08;;
18046;SDS011;9148;51.454;13.862;2022-10-16T13:44:36;0.85;;;0.60;;
18046;SDS011;9148;51.454;13.862;2022-10-16T13:47:18;0.20;;;0.20;;
18046;SDS011;9148;51.454;13.862;2022-10-16T13:49:47;0.43;;;0.25;;
18046;SDS011;9148;51.454;13.862;2022-10-16T13:52:40;0.50;;;0.50;;
18046;SDS011;9148;51.454;13.862;2022-10-16T13:55:16;0.40;;;0.40;;
18046;SDS011;9148;51.454;13.862;2022-10-16T13:57:44;0.43;;;0.20;;
18046;SDS011;9148;51.454;13.862;2022-10-16T14:00:51;0.25;;;0.25;;
18046;SDS011;9148;51.454;13.862;2022-10-16T14:03:03;1.75;;;0.30;;
18046;SDS011;9148;51.454;13.862;2022-10-16T14:05:46;0.40;;;0.40;;
18046;SDS011;9148;51.454;13.862;2022-10-16T14:08:14;1.02;;;0.38;;
18046;SDS011;9148;51.454;13.862;2022-10-16T14:10:40;0.10;;;0.10;;
18046;SDS011;9148;51.454;13.862;2022-10-16T14:13:07;0.40;;;0.40;;
18046;SDS011;9148;51.454;13.862;2022-10-16T14:15:45;0.30;;;0.30;;
18046;SDS011;9148;51.454;13.862;2022-10-16T14:18:17;0.13;;;0.13;;
18046;SDS011;9148;51.454;13.862;2022-10-16T14:20:47;0.10;;;0.10;;
18046;SDS011;9148;51.454;13.862;2022-10-16T14:23:19;0.20;;;0.20;;
18046;SDS011;9148;51.454;13.862;2022-10-16T14:26:05;0.30;;;0.30;;
18046;SDS011;9148;51.454;13.862;2022-10-16T14:28:43;0.75;;;0.40;;
18046;SDS011;9148;51.454;13.862;2022-10-16T14:31:53;0.57;;;0.38;;
18046;SDS011;9148;51.454;13.862;2022-10-16T14:34:04;0.30;;;0.30;;
18046;SDS011;9148;51.454;13.862;2022-10-16T14:36:49;0.22;;;0.20;;
18046;SDS011;9148;51.454;13.862;2022-10-16T14:39:19;0.45;;;0.30;;
18046;SDS011;9148;51.454;13.862;2022-10-16T14:41:48;0.60;;;0.40;;
18046;SDS011;9148;51.454;13.862;2022-10-16T14:44:16;0.30;;;0.30;;
18046;SDS011;9148;51.454;13.862;2022-10-16T14:46:43;0.20;;;0.20;;
18046;SDS011;9148;51.454;13.862;2022-10-16T14:51:36;0.17;;;0.17;;
18046;SDS011;9148;51.454;13.862;2022-10-16T14:54:03;1.40;;;0.73;;
18046;SDS011;9148;51.454;13.862;2022-10-16T14:56:30;0.47;;;0.40;;
18046;SDS011;9148;51.454;13.862;2022-10-16T14:59:07;0.25;;;0.25;;
18046;SDS011;9148;51.454;13.862;2022-10-16T15:01:42;0.43;;;0.43;;
18046;SDS011;9148;51.454;13.862;2022-10-16T15:04:10;0.20;;;0.20;;
18046;SDS011;9148;51.454;13.862;2022-10-16T15:06:38;0.22;;;0.22;;
18046;SDS011;9148;51.454;13.862;2022-10-16T15:09:03;1.25;;;0.80;;
18046;SDS011;9148;51.454;13.862;2022-10-16T15:11:29;1.83;;;0.40;;
18046;SDS011;9148;51.454;13.862;2022-10-16T15:13:57;1.10;;;0.43;;
18046;SDS011;9148;51.454;13.862;2022-10-16T15:16:23;1.30;;;0.50;;
18046;SDS011;9148;51.454;13.862;2022-10-16T15:18:49;0.20;;;0.20;;
18046;SDS011;9148;51.454;13.862;2022-10-16T15:21:28;0.40;;;0.40;;
18046;SDS011;9148;51.454;13.862;2022-10-16T15:23:57;6.93;;;0.60;;
18046;SDS011;9148;51.454;13.862;2022-10-16T15:26:28;0.25;;;0.22;;
18046;SDS011;9148;51.454;13.862;2022-10-16T15:28:54;0.63;;;0.57;;
18046;SDS011;9148;51.454;13.862;2022-10-16T15:31:20;0.40;;;0.40;;
18046;SDS011;9148;51.454;13.862;2022-10-16T15:33:49;0.43;;;0.38;;
18046;SDS011;9148;51.454;13.862;2022-10-16T15:36:27;0.30;;;0.30;;
18046;SDS011;9148;51.454;13.862;2022-10-16T15:38:54;1.60;;;0.40;;
18046;SDS011;9148;51.454;13.862;2022-10-16T15:41:20;0.75;;;0.50;;
18046;SDS011;9148;51.454;13.862;2022-10-16T15:43:47;0.30;;;0.30;;
18046;SDS011;9148;51.454;13.862;2022-10-16T15:46:14;0.40;;;0.40;;
18046;SDS011;9148;51.454;13.862;2022-10-16T15:48:43;0.85;;;0.60;;
18046;SDS011;9148;51.454;13.862;2022-10-16T15:51:08;0.30;;;0.30;;
18046;SDS011;9148;51.454;13.862;2022-10-16T15:53:34;0.80;;;0.60;;
18046;SDS011;9148;51.454;13.862;2022-10-16T15:56:01;0.50;;;0.50;;
18046;SDS011;9148;51.454;13.862;2022-10-16T15:58:29;0.68;;;0.45;;
18046;SDS011;9148;51.454;13.862;2022-10-16T16:00:58;0.82;;;0.55;;
18046;SDS011;9148;51.454;13.862;2022-10-16T16:03:28;1.52;;;0.90;;
18046;SDS011;9148;51.454;13.862;2022-10-16T16:05:55;1.00;;;0.88;;
18046;SDS011;9148;51.454;13.862;2022-10-16T16:08:21;1.33;;;0.70;;
18046;SDS011;9148;51.454;13.862;2022-10-16T16:10:59;0.57;;;0.57;;
18046;SDS011;9148;51.454;13.862;2022-10-16T16:13:27;2.97;;;1.20;;
18046;SDS011;9148;51.454;13.862;2022-10-16T16:15:53;3.08;;;1.52;;
18046;SDS011;9148;51.454;13.862;2022-10-16T16:18:19;1.15;;;0.90;;
18046;SDS011;9148;51.454;13.862;2022-10-16T16:20:45;1.35;;;1.02;;
18046;SDS011;9148;51.454;13.862;2022-10-16T16:23:10;1.23;;;1.13;;
18046;SDS011;9148;51.454;13.862;2022-10-16T16:25:36;2.42;;;1.27;;
18046;SDS011;9148;51.454;13.862;2022-10-16T16:28:02;1.23;;;0.95;;
18046;SDS011;9148;51.454;13.862;2022-10-16T16:30:27;1.10;;;1.00;;
18046;SDS011;9148;51.454;13.862;2022-10-16T16:32:53;1.40;;;1.13;;
18046;SDS011;9148;51.454;13.862;2022-10-16T16:35:19;0.95;;;0.90;;
18046;SDS011;9148;51.454;13.862;2022-10-16T16:37:46;1.52;;;1.15;;
18046;SDS011;9148;51.454;13.862;2022-10-16T16:40:12;2.38;;;1.10;;
18046;SDS011;9148;51.454;13.862;2022-10-16T16:42:38;1.33;;;1.10;;
18046;SDS011;9148;51.454;13.862;2022-10-16T16:45:04;2.70;;;1.65;;
18046;SDS011;9148;51.454;13.862;2022-10-16T16:47:30;2.03;;;1.83;;
18046;SDS011;9148;51.454;13.862;2022-10-16T16:49:56;2.17;;;1.92;;
18046;SDS011;9148;51.454;13.862;2022-10-16T16:52:21;1.98;;;1.60;;
18046;SDS011;9148;51.454;13.862;2022-10-16T16:54:47;1.95;;;1.70;;
18046;SDS011;9148;51.454;13.862;2022-10-16T16:57:17;2.50;;;1.75;;
18046;SDS011;9148;51.454;13.862;2022-10-16T16:59:44;2.08;;;1.20;;
18046;SDS011;9148;51.454;13.862;2022-10-16T17:02:10;2.08;;;1.58;;